Time;durP1;ratioP1;P1;durP2;ratioP2;P2;SDS_P1;SDS_P2;PMS_P1;PMS_P2;Temp;Humidity;BMP_temperature;BMP_pressure;BME280_temperature;BME280_humidity;BME280_pressure;Samples;Min_cycle;Max_cycle;Signal;HPM_P1;HPM_P2
2022/05/10 00:01:33;;;;;;;;;;;;;;;;;;5076481;28;28234;-86
2022/05/10 00:03:58;;;;;;;;;;;;;;;;;;5075336;28;28330;-86
2022/05/10 00:06:23;;;;;;;;;;;;;;;;;;5083556;28;28603;-86
2022/05/10 00:08:48;;;;;;;;;;;;;;;;;;5095029;27;28577;-86
2022/05/10 00:11:13;;;;;;;;;;;;;;;;;;5095537;28;28330;-86
2022/05/10 00:13:39;;;;;;;;;;;;;;;;;;5093984;28;28369;-86
2022/05/10 00:16:04;;;;;;;;;;;;;;;;;;5076952;28;28440;-86
2022/05/10 00:18:30;;;;;;;;;;;;;;;;;;5080578;28;28303;-86
2022/05/10 00:20:55;;;;;;;;;;;;;;;;;;5081813;28;28491;-86
2022/05/10 00:23:20;;;;;;;;;;;;;;;;;;5075023;28;28453;-86
2022/05/10 00:25:45;;;;;;;;;;;;;;;;;;5094485;28;28773;-87
2022/05/10 00:28:10;;;;;;;;;;;;;;;;;;5095315;28;28298;-86
2022/05/10 00:30:35;;;;;;;;;;;;;;;;;;5095010;28;27855;-86
2022/05/10 00:33:00;;;;;;;;;;;;;;;;;;5081571;28;28300;-86
2022/05/10 00:35:25;;;;;;;;;;;;;;;;;;5094669;28;28738;-86
2022/05/10 00:37:50;;;;;;;;;;;;;;;;;;5077998;28;28347;-87
2022/05/10 00:40:16;;;;;;;;;;;;;;;;;;5089240;28;28482;-87
2022/05/10 00:42:41;;;;;;;;;;;;;;;;;;5074608;28;28431;-88
2022/05/10 00:45:06;;;;;;;;;;;;;;;;;;5074743;28;28537;-87
2022/05/10 00:47:31;;;;;;;;;;;;;;;;;;5074581;28;28451;-86
2022/05/10 00:49:56;;;;;;;;;;;;;;;;;;5077098;28;28402;-86
2022/05/10 00:52:21;;;;;;;;;;;;;;;;;;5093552;28;28415;-86
2022/05/10 00:54:46;;;;;;;;;;;;;;;;;;5074772;28;28958;-86
2022/05/10 00:57:11;;;;;;;;;;;;;;;;;;5086754;28;28303;-86
2022/05/10 00:59:36;;;;;;;;;;;;;;;;;;5075509;28;27871;-86
2022/05/10 01:02:01;;;;;;;;;;;;;;;;;;5075455;28;28450;-87
2022/05/10 01:04:27;;;;;;;;;;;;;;;;;;5062244;28;29419;-85
2022/05/10 01:06:52;;;;;;;;;;;;;;;;;;5068944;28;28388;-86
2022/05/10 01:09:17;;;;;;;;;;;;;;;;;;5097565;27;28665;-85
2022/05/10 01:11:42;;;;;;;;;;;;;;;;;;5083943;27;28488;-86
2022/05/10 01:14:07;;;;;;;;;;;;;;;;;;5081150;27;28691;-85
2022/05/10 01:16:33;;;;;;;;;;;;;;;;;;5078923;28;28789;-86
2022/05/10 01:18:58;;;;;;;;;;;;;;;;;;5059581;28;28527;-85
2022/05/10 01:21:23;;;;;;;;;;;;;;;;;;5077717;28;28381;-85
2022/05/10 01:23:51;;;;;;;;;;;;;;;;;;5092617;28;28474;-86
2022/05/10 01:26:16;;;;;;;;;;;;;;;;;;5085436;27;29181;-85
2022/05/10 01:28:41;;;;;;;;;;;;;;;;;;5077789;28;28280;-86
2022/05/10 01:31:06;;;;;;;;;;;;;;;;;;5087822;28;28418;-85
2022/05/10 01:33:32;;;;;;;;;;;;;;;;;;5097708;27;28452;-86
2022/05/10 01:35:57;;;;;;;;;;;;;;;;;;5094325;28;28356;-86
2022/05/10 01:38:22;;;;;;;;;;;;;;;;;;5079499;28;28461;-86
2022/05/10 01:40:47;;;;;;;;;;;;;;;;;;5074210;28;28607;-85
2022/05/10 01:43:12;;;;;;;;;;;;;;;;;;5077849;28;29378;-86
2022/05/10 01:45:37;;;;;;;;;;;;;;;;;;5077474;28;28437;-86
2022/05/10 01:48:02;;;;;;;;;;;;;;;;;;5088929;28;28284;-86
2022/05/10 01:50:27;;;;;;;;;;;;;;;;;;5078838;28;28547;-86
2022/05/10 01:52:52;;;;;;;;;;;;;;;;;;5086473;28;28627;-86
2022/05/10 01:55:18;;;;;;;;;;;;;;;;;;5097330;28;28214;-86
2022/05/10 01:57:43;;;;;;;;;;;;;;;;;;5097308;28;28308;-86
2022/05/10 02:00:08;;;;;;;;;;;;;;;;;;5086208;27;28640;-86
2022/05/10 02:02:33;;;;;;;;;;;;;;;;;;5077154;28;28513;-86
2022/05/10 02:04:58;;;;;;;;;;;;;;;;;;5077453;28;28754;-86
2022/05/10 02:07:23;;;;;;;;;;;;;;;;;;5078175;28;28427;-86
2022/05/10 02:09:48;;;;;;;;;;;;;;;;;;5089672;28;28345;-86
2022/05/10 02:12:13;;;;;;;;;;;;;;;;;;5080936;28;29515;-86
2022/05/10 02:14:38;;;;;;;;;;;;;;;;;;5089479;28;28880;-84
2022/05/10 02:17:04;;;;;;;;;;;;;;;;;;5077635;27;28332;-83
2022/05/10 02:19:29;;;;;;;;;;;;;;;;;;5077324;28;28245;-84
2022/05/10 02:21:54;;;;;;;;;;;;;;;;;;5085965;28;28666;-83
2022/05/10 02:24:19;;;;;;;;;;;;;;;;;;5076529;28;28399;-83
2022/05/10 02:26:44;;;;;;;;;;;;;;;;;;5060244;28;28546;-84
2022/05/10 02:29:09;;;;;;;;;;;;;;;;;;5077794;28;28296;-83
2022/05/10 02:33:06;;;;;;;;;;;;;;;;;;5086266;28;28400;-86
2022/05/10 02:34:19;;;;;;;;;;;;;;;;;;5096570;28;27919;-85
2022/05/10 02:36:44;;;;;;;;;;;;;;;;;;5095164;27;28505;-87
2022/05/10 02:39:09;;;;;;;;;;;;;;;;;;5097074;27;28325;-87
2022/05/10 02:41:34;;;;;;;;;;;;;;;;;;5077671;28;28721;-86
2022/05/10 02:44:00;;;;;;;;;;;;;;;;;;5080593;28;28247;-86
2022/05/10 02:46:25;;;;;;;;;;;;;;;;;;5078000;28;28272;-87
2022/05/10 02:48:50;;;;;;;;;;;;;;;;;;5076882;28;28386;-86
2022/05/10 02:51:16;;;;;;;;;;;;;;;;;;5077370;28;28328;-86
2022/05/10 02:53:41;;;;;;;;;;;;;;;;;;5076449;28;28362;-86
2022/05/10 02:56:06;;;;;;;;;;;;;;;;;;5077442;28;28511;-85
2022/05/10 02:58:31;;;;;;;;;;;;;;;;;;5076289;28;28396;-85
2022/05/10 03:00:56;;;;;;;;;;;;;;;;;;5077454;28;29311;-85
2022/05/10 03:03:21;;;;;;;;;;;;;;;;;;5076039;28;28364;-84
2022/05/10 03:05:46;;;;;;;;;;;;;;;;;;5076108;28;28229;-84
2022/05/10 03:08:11;;;;;;;;;;;;;;;;;;5076506;28;28288;-85
2022/05/10 03:10:36;;;;;;;;;;;;;;;;;;5075866;28;29116;-85
2022/05/10 03:13:02;;;;;;;;;;;;;;;;;;5090766;28;28386;-84
2022/05/10 03:15:27;;;;;;;;;;;;;;;;;;5083274;28;28608;-84
2022/05/10 03:17:52;;;;;;;;;;;;;;;;;;5096328;27;28547;-85
2022/05/10 03:20:17;;;;;;;;;;;;;;;;;;5087394;28;29302;-84
2022/05/10 03:22:42;;;;;;;;;;;;;;;;;;5086528;28;28359;-84
2022/05/10 03:25:07;;;;;;;;;;;;;;;;;;5081800;28;28378;-85
2022/05/10 03:27:34;;;;;;;;;;;;;;;;;;5091961;28;29381;-85
2022/05/10 03:29:59;;;;;;;;;;;;;;;;;;5077586;28;28652;-85
2022/05/10 03:32:25;;;;;;;;;;;;;;;;;;5095991;28;28400;-85
2022/05/10 03:34:57;;;;;;;;;;;;;;;;;;5095787;28;28403;-85
2022/05/10 03:37:23;;;;;;;;;;;;;;;;;;5095777;28;28421;-84
2022/05/10 03:39:48;;;;;;;;;;;;;;;;;;5095659;28;28526;-84
2022/05/10 03:42:13;;;;;;;;;;;;;;;;;;5077530;27;28458;-84
2022/05/10 03:44:38;;;;;;;;;;;;;;;;;;5095946;27;28497;-85
2022/05/10 03:47:03;;;;;;;;;;;;;;;;;;5069145;28;28502;-84
2022/05/10 03:49:28;;;;;;;;;;;;;;;;;;5094181;28;28539;-85
2022/05/10 03:51:54;;;;;;;;;;;;;;;;;;5095531;28;28474;-84
2022/05/10 03:54:19;;;;;;;;;;;;;;;;;;5095774;28;28387;-84
2022/05/10 03:56:44;;;;;;;;;;;;;;;;;;5095708;27;28401;-85
2022/05/10 03:59:09;;;;;;;;;;;;;;;;;;5095644;27;28649;-84
2022/05/10 04:01:34;;;;;;;;;;;;;;;;;;5058966;28;28494;-85
2022/05/10 04:03:59;;;;;;;;;;;;;;;;;;5075331;28;28387;-84
2022/05/10 04:06:24;;;;;;;;;;;;;;;;;;5075085;28;28474;-85
2022/05/10 04:08:50;;;;;;;;;;;;;;;;;;5075508;28;28390;-85
2022/05/10 04:11:15;;;;;;;;;;;;;;;;;;5091564;27;28569;-85
2022/05/10 04:13:40;;;;;;;;;;;;;;;;;;5093968;28;28319;-85
2022/05/10 04:16:05;;;;;;;;;;;;;;;;;;5083741;28;28442;-84
2022/05/10 04:18:30;;;;;;;;;;;;;;;;;;5075919;28;28536;-85
2022/05/10 04:20:55;;;;;;;;;;;;;;;;;;5094942;28;28415;-85
2022/05/10 04:23:20;;;;;;;;;;;;;;;;;;5087668;28;28389;-85
2022/05/10 04:25:45;;;;;;;;;;;;;;;;;;5084201;28;28432;-85
2022/05/10 04:28:10;;;;;;;;;;;;;;;;;;5093220;28;28466;-84
2022/05/10 04:30:35;;;;;;;;;;;;;;;;;;5075135;28;28531;-84
2022/05/10 04:33:01;;;;;;;;;;;;;;;;;;5090207;28;28478;-85
2022/05/10 04:35:26;;;;;;;;;;;;;;;;;;5081464;28;28450;-84
2022/05/10 04:37:51;;;;;;;;;;;;;;;;;;5081144;28;28435;-86
2022/05/10 04:43:00;;;;;;;;;;;;;;;;;;5075946;28;28429;-86
2022/05/10 04:45:25;;;;;;;;;;;;;;;;;;5094933;28;28389;-86
2022/05/10 04:47:50;;;;;;;;;;;;;;;;;;5098478;27;28231;-87
2022/05/10 04:50:15;;;;;;;;;;;;;;;;;;5098632;28;28478;-86
2022/05/10 04:52:40;;;;;;;;;;;;;;;;;;5098672;28;28490;-86
2022/05/10 04:55:05;;;;;;;;;;;;;;;;;;5086168;28;28485;-86
2022/05/10 04:57:30;;;;;;;;;;;;;;;;;;5077643;28;28458;-85
2022/05/10 04:59:55;;;;;;;;;;;;;;;;;;5097089;28;28506;-86
2022/05/10 05:02:21;;;;;;;;;;;;;;;;;;5093582;28;28383;-87
2022/05/10 05:04:46;;;;;;;;;;;;;;;;;;5077941;28;28356;-88
2022/05/10 05:07:11;;;;;;;;;;;;;;;;;;5072785;27;29638;-87
2022/05/10 05:09:36;;;;;;;;;;;;;;;;;;5098371;27;28515;-83
2022/05/10 05:12:01;;;;;;;;;;;;;;;;;;5098210;28;27831;-84
2022/05/10 05:14:26;;;;;;;;;;;;;;;;;;5082940;28;27893;-84
2022/05/10 05:16:54;;;;;;;;;;;;;;;;;;5077819;28;28419;-86
2022/05/10 05:19:19;;;;;;;;;;;;;;;;;;5077907;28;28381;-83
2022/05/10 05:21:44;;;;;;;;;;;;;;;;;;5077732;28;28447;-83
2022/05/10 05:24:11;;;;;;;;;;;;;;;;;;5078707;28;28420;-84
2022/05/10 05:26:36;;;;;;;;;;;;;;;;;;5077375;28;28508;-83
2022/05/10 05:29:01;;;;;;;;;;;;;;;;;;5078557;28;28416;-83
2022/05/10 05:31:26;;;;;;;;;;;;;;;;;;5076136;28;29746;-83
2022/05/10 05:33:51;;;;;;;;;;;;;;;;;;5079535;28;28519;-84
2022/05/10 05:36:16;;;;;;;;;;;;;;;;;;5080615;28;29494;-83
2022/05/10 05:38:41;;;;;;;;;;;;;;;;;;5077904;28;28253;-83
2022/05/10 05:41:07;;;;;;;;;;;;;;;;;;5081234;28;27784;-83
2022/05/10 05:43:32;;;;;;;;;;;;;;;;;;5096261;28;28505;-84
2022/05/10 05:45:57;;;;;;;;;;;;;;;;;;5097794;28;28290;-84
2022/05/10 05:48:23;;;;;;;;;;;;;;;;;;5092441;27;28439;-83
2022/05/10 05:50:48;;;;;;;;;;;;;;;;;;5087754;28;28370;-83
2022/05/10 05:53:13;;;;;;;;;;;;;;;;;;5075494;28;28589;-84
2022/05/10 05:55:38;;;;;;;;;;;;;;;;;;5077467;28;29353;-83
2022/05/10 05:58:03;;;;;;;;;;;;;;;;;;5090285;28;28555;-83
2022/05/10 06:00:28;;;;;;;;;;;;;;;;;;5095281;28;28370;-84
2022/05/10 06:02:53;;;;;;;;;;;;;;;;;;5095332;28;27875;-83
2022/05/10 06:05:18;;;;;;;;;;;;;;;;;;5077219;28;29436;-84
2022/05/10 06:07:44;;;;;;;;;;;;;;;;;;5077424;28;28415;-83
2022/05/10 06:10:09;;;;;;;;;;;;;;;;;;5058842;28;28400;-87
2022/05/10 06:12:34;;;;;;;;;;;;;;;;;;5059974;28;28322;-84
2022/05/10 06:14:59;;;;;;;;;;;;;;;;;;5095593;28;28378;-83
2022/05/10 06:17:24;;;;;;;;;;;;;;;;;;5096991;27;28414;-85
2022/05/10 06:19:50;;;;;;;;;;;;;;;;;;5078741;28;28375;-85
2022/05/10 06:22:15;;;;;;;;;;;;;;;;;;5065968;28;28404;-88
2022/05/10 06:24:40;;;;;;;;;;;;;;;;;;5079016;28;28433;-88
2022/05/10 06:27:05;;;;;;;;;;;;;;;;;;5077430;28;29050;-85
2022/05/10 06:29:30;;;;;;;;;;;;;;;;;;5094016;28;28323;-83
2022/05/10 06:31:55;;;;;;;;;;;;;;;;;;5097053;28;28348;-84
2022/05/10 06:34:20;;;;;;;;;;;;;;;;;;5093173;27;29398;-86
2022/05/10 06:36:45;;;;;;;;;;;;;;;;;;5083181;28;28514;-86
2022/05/10 06:39:11;;;;;;;;;;;;;;;;;;5095539;28;28355;-86
2022/05/10 06:41:36;;;;;;;;;;;;;;;;;;5090623;28;28520;-86
2022/05/10 06:44:01;;;;;;;;;;;;;;;;;;5077742;28;28542;-87
2022/05/10 06:46:26;;;;;;;;;;;;;;;;;;5076303;28;28380;-85
2022/05/10 06:48:51;;;;;;;;;;;;;;;;;;5076668;28;28360;-86
2022/05/10 06:51:16;;;;;;;;;;;;;;;;;;5080401;28;28320;-85
2022/05/10 06:53:41;;;;;;;;;;;;;;;;;;5080080;28;28669;-86
2022/05/10 06:56:06;;;;;;;;;;;;;;;;;;5083814;28;28348;-86
2022/05/10 06:58:32;;;;;;;;;;;;;;;;;;5096387;28;28588;-86
2022/05/10 07:00:57;;;;;;;;;;;;;;;;;;5094759;28;28517;-86
2022/05/10 07:03:22;;;;;;;;;;;;;;;;;;5095705;28;28367;-86
2022/05/10 07:05:47;;;;;;;;;;;;;;;;;;5096456;27;28371;-87
2022/05/10 07:08:13;;;;;;;;;;;;;;;;;;5096448;28;28301;-86
2022/05/10 07:10:38;;;;;;;;;;;;;;;;;;5094537;28;28481;-86
2022/05/10 07:13:03;;;;;;;;;;;;;;;;;;5096434;28;29145;-85
2022/05/10 07:15:29;;;;;;;;;;;;;;;;;;5080622;28;28351;-87
2022/05/10 07:17:54;;;;;;;;;;;;;;;;;;5090855;28;28296;-86
2022/05/10 07:20:19;;;;;;;;;;;;;;;;;;5089376;28;28517;-87
2022/05/10 07:22:44;;;;;;;;;;;;;;;;;;5059337;28;28515;-86
2022/05/10 07:25:09;;;;;;;;;;;;;;;;;;5063198;28;28506;-87
2022/05/10 07:27:34;;;;;;;;;;;;;;;;;;5059788;28;28362;-87
2022/05/10 07:29:59;;;;;;;;;;;;;;;;;;5071009;28;28273;-86
2022/05/10 07:32:25;;;;;;;;;;;;;;;;;;5072353;28;28257;-87
2022/05/10 07:34:50;;;;;;;;;;;;;;;;;;5086882;28;28439;-88
2022/05/10 07:37:15;;;;;;;;;;;;;;;;;;5073019;28;28587;-87
2022/05/10 07:39:40;;;;;;;;;;;;;;;;;;5081988;28;28488;-87
2022/05/10 07:42:05;;;;;;;;;;;;;;;;;;5096355;28;29344;-85
2022/05/10 07:44:30;;;;;;;;;;;;;;;;;;5082142;28;27933;-88
2022/05/10 07:46:56;;;;;;;;;;;;;;;;;;5075628;28;28560;-87
2022/05/10 07:49:21;;;;;;;;;;;;;;;;;;5078076;28;28372;-87
2022/05/10 07:51:51;;;;;;;;;;;;;;;;;;5078713;28;29657;-88
2022/05/10 07:54:16;;;;;;;;;;;;;;;;;;5071891;28;28738;-87
2022/05/10 07:56:41;;;;;;;;;;;;;;;;;;5075162;28;28417;-88
2022/05/10 07:59:06;;;;;;;;;;;;;;;;;;5075587;28;28375;-87
2022/05/10 08:01:32;;;;;;;;;;;;;;;;;;5081607;28;28532;-86
2022/05/10 08:03:57;;;;;;;;;;;;;;;;;;5095357;28;28485;-84
2022/05/10 08:06:22;;;;;;;;;;;;;;;;;;5078088;28;28387;-86
2022/05/10 08:08:47;;;;;;;;;;;;;;;;;;5074632;28;28407;-85
2022/05/10 08:11:12;;;;;;;;;;;;;;;;;;5048913;28;29221;-86
2022/05/10 08:13:37;;;;;;;;;;;;;;;;;;5074980;28;28322;-86
2022/05/10 08:16:02;;;;;;;;;;;;;;;;;;5079058;28;28701;-86
2022/05/10 08:18:27;;;;;;;;;;;;;;;;;;5075638;28;28409;-87
2022/05/10 08:20:52;;;;;;;;;;;;;;;;;;5070276;28;28463;-86
2022/05/10 08:23:18;;;;;;;;;;;;;;;;;;5058392;28;28312;-86
2022/05/10 08:25:43;;;;;;;;;;;;;;;;;;5078111;28;28415;-86
2022/05/10 08:28:13;;;;;;;;;;;;;;;;;;5075135;28;28316;-85
2022/05/10 08:30:38;;;;;;;;;;;;;;;;;;5073180;28;28520;-87
2022/05/10 08:33:03;;;;;;;;;;;;;;;;;;5074890;28;28371;-87
2022/05/10 08:35:28;;;;;;;;;;;;;;;;;;5079745;28;28486;-85
2022/05/10 08:37:54;;;;;;;;;;;;;;;;;;5084193;28;27926;-87
2022/05/10 08:40:19;;;;;;;;;;;;;;;;;;5074616;28;29340;-87
2022/05/10 08:42:44;;;;;;;;;;;;;;;;;;5074775;28;28487;-86
2022/05/10 08:45:09;;;;;;;;;;;;;;;;;;5075314;28;28500;-86
2022/05/10 08:47:34;;;;;;;;;;;;;;;;;;5075306;28;28403;-85
2022/05/10 08:49:59;;;;;;;;;;;;;;;;;;5074580;28;28727;-85
2022/05/10 08:52:24;;;;;;;;;;;;;;;;;;5085017;28;28395;-86
2022/05/10 08:54:53;;;;;;;;;;;;;;;;;;5087896;28;28490;-87
2022/05/10 08:57:18;;;;;;;;;;;;;;;;;;5074297;28;28550;-88
2022/05/10 08:59:43;;;;;;;;;;;;;;;;;;5073877;28;34582;-86
2022/05/10 09:02:08;;;;;;;;;;;;;;;;;;5074565;28;28313;-85
2022/05/10 09:04:33;;;;;;;;;;;;;;;;;;5086471;28;28456;-91
2022/05/10 09:06:58;;;;;;;;;;;;;;;;;;5062026;28;28455;-84
2022/05/10 09:09:23;;;;;;;;;;;;;;;;;;5074008;28;29215;-82
2022/05/10 09:11:49;;;;;;;;;;;;;;;;;;5071733;28;28440;-83
2022/05/10 09:14:14;;;;;;;;;;;;;;;;;;5074046;28;28598;-84
2022/05/10 09:16:39;;;;;;;;;;;;;;;;;;5079089;28;28493;-85
2022/05/10 09:19:06;;;;;;;;;;;;;;;;;;5076487;28;28583;-87
2022/05/10 09:21:31;;;;;;;;;;;;;;;;;;5082174;28;28443;-89
2022/05/10 09:23:57;;;;;;;;;;;;;;;;;;5075012;28;28509;-87
2022/05/10 09:26:25;;;;;;;;;;;;;;;;;;5076962;28;28365;-89
2022/05/10 09:28:50;;;;;;;;;;;;;;;;;;5076373;28;29545;-87
2022/05/10 09:36:43;;;;;;;;;;;;;;;;;;5081007;27;28513;-90
2022/05/10 09:39:08;;;;;;;;;;;;;;;;;;5062790;28;30535;-88
2022/05/10 09:41:33;;;;;;;;;;;;;;;;;;5097932;28;28469;-95
2022/05/10 09:43:58;;;;;;;;;;;;;;;;;;5085480;27;28410;-96
2022/05/10 09:46:25;;;;;;;;;;;;;;;;;;5077996;28;28420;-88
2022/05/10 09:48:50;;;;;;;;;;;;;;;;;;5079724;28;29129;-84
2022/05/10 09:51:15;;;;;;;;;;;;;;;;;;5079691;28;28324;-87
2022/05/10 09:53:41;;;;;;;;;;;;;;;;;;5062103;28;28527;-88
2022/05/10 09:56:06;;;;;;;;;;;;;;;;;;5079120;28;28466;-86
2022/05/10 09:58:31;;;;;;;;;;;;;;;;;;5084819;28;29350;-87
2022/05/10 10:00:56;;;;;;;;;;;;;;;;;;5089457;28;28526;-90
2022/05/10 10:03:21;;;;;;;;;;;;;;;;;;5058901;28;28574;-85
2022/05/10 10:05:47;;;;;;;;;;;;;;;;;;5077346;28;28542;-86
2022/05/10 10:08:12;;;;;;;;;;;;;;;;;;5094761;28;29466;-86
2022/05/10 10:10:37;;;;;;;;;;;;;;;;;;5082764;28;28435;-85
2022/05/10 10:13:02;;;;;;;;;;;;;;;;;;5076872;28;28550;-86
2022/05/10 10:15:27;;;;;;;;;;;;;;;;;;5076339;28;28549;-85
2022/05/10 10:17:52;;;;;;;;;;;;;;;;;;5076466;28;28688;-85
2022/05/10 10:20:19;;;;;;;;;;;;;;;;;;5080481;28;28471;-89
2022/05/10 10:22:44;;;;;;;;;;;;;;;;;;5079142;28;28304;-89
2022/05/10 10:25:09;;;;;;;;;;;;;;;;;;5076466;28;28554;-88
2022/05/10 10:27:34;;;;;;;;;;;;;;;;;;5075442;28;28541;-88
2022/05/10 10:29:59;;;;;;;;;;;;;;;;;;5057903;28;28493;-89
2022/05/10 10:32:25;;;;;;;;;;;;;;;;;;5075089;28;28592;-88
2022/05/10 10:34:50;;;;;;;;;;;;;;;;;;5089854;28;28730;-88
2022/05/10 10:37:15;;;;;;;;;;;;;;;;;;5089945;28;28668;-87
2022/05/10 10:39:40;;;;;;;;;;;;;;;;;;5076941;28;28248;-87
2022/05/10 10:42:05;;;;;;;;;;;;;;;;;;5074951;28;28507;-88
2022/05/10 10:44:30;;;;;;;;;;;;;;;;;;5085636;28;28604;-89
2022/05/10 10:46:55;;;;;;;;;;;;;;;;;;5057982;28;28350;-88
2022/05/10 10:49:20;;;;;;;;;;;;;;;;;;5075396;28;28388;-87
2022/05/10 10:51:45;;;;;;;;;;;;;;;;;;5075750;28;28372;-88
2022/05/10 10:54:11;;;;;;;;;;;;;;;;;;5076308;28;28403;-90
2022/05/10 10:56:36;;;;;;;;;;;;;;;;;;5076061;28;28601;-88
2022/05/10 10:59:01;;;;;;;;;;;;;;;;;;5077123;28;28300;-88
2022/05/10 11:01:26;;;;;;;;;;;;;;;;;;5076292;28;28460;-89
2022/05/10 11:03:51;;;;;;;;;;;;;;;;;;5078710;28;28304;-88
2022/05/10 11:06:16;;;;;;;;;;;;;;;;;;5075968;28;28570;-88
2022/05/10 11:08:41;;;;;;;;;;;;;;;;;;5075845;28;28588;-88
2022/05/10 11:11:07;;;;;;;;;;;;;;;;;;5075812;28;28307;-88
2022/05/10 11:13:32;;;;;;;;;;;;;;;;;;5075338;28;28228;-89
2022/05/10 11:15:57;;;;;;;;;;;;;;;;;;5068233;28;28586;-90
2022/05/10 11:18:22;;;;;;;;;;;;;;;;;;5075843;28;28470;-90
2022/05/10 11:20:47;;;;;;;;;;;;;;;;;;5076145;28;27868;-93
2022/05/10 11:23:12;;;;;;;;;;;;;;;;;;5064496;28;28801;-92
2022/05/10 11:25:37;;;;;;;;;;;;;;;;;;5074784;27;30280;-91
2022/05/10 11:28:02;;;;;;;;;;;;;;;;;;5090976;27;28446;-90
2022/05/10 11:30:28;;;;;;;;;;;;;;;;;;5076337;28;28490;-93
2022/05/10 11:32:53;;;;;;;;;;;;;;;;;;5082589;28;35166;-93
2022/05/10 11:35:18;;;;;;;;;;;;;;;;;;5096010;28;28348;-94
2022/05/10 11:37:43;;;;;;;;;;;;;;;;;;5077517;28;28461;-89
2022/05/10 11:40:09;;;;;;;;;;;;;;;;;;5074152;28;28555;-94
2022/05/10 11:42:37;;;;;;;;;;;;;;;;;;5059655;28;28617;-92
2022/05/10 11:45:03;;;;;;;;;;;;;;;;;;5058946;28;29930;-93
2022/05/10 11:47:28;;;;;;;;;;;;;;;;;;5067331;28;28485;-91
2022/05/10 11:49:53;;;;;;;;;;;;;;;;;;5093686;28;28387;-94
2022/05/10 11:52:18;;;;;;;;;;;;;;;;;;5078578;28;28491;-94
2022/05/10 11:54:43;;;;;;;;;;;;;;;;;;5058600;28;29952;-94
2022/05/10 11:57:08;;;;;;;;;;;;;;;;;;5059137;28;28346;-95
2022/05/10 11:59:35;;;;;;;;;;;;;;;;;;5059337;28;28530;-89
2022/05/10 12:02:00;;;;;;;;;;;;;;;;;;5094634;28;28442;-88
2022/05/10 12:04:25;;;;;;;;;;;;;;;;;;5095430;28;28390;-88
2022/05/10 12:06:51;;;;;;;;;;;;;;;;;;5077481;28;28427;-91
2022/05/10 12:09:16;;;;;;;;;;;;;;;;;;5056957;28;28598;-91
2022/05/10 12:11:43;;;;;;;;;;;;;;;;;;5069018;28;28451;-92
2022/05/10 12:22:20;;;;;;;;;;;;;;;;;;5086007;28;28280;-90
2022/05/10 12:24:45;;;;;;;;;;;;;;;;;;5061182;28;29674;-88
2022/05/10 12:27:11;;;;;;;;;;;;;;;;;;5076043;28;28368;-88
2022/05/10 12:29:36;;;;;;;;;;;;;;;;;;5087421;28;28371;-90
2022/05/10 12:32:04;;;;;;;;;;;;;;;;;;5074511;28;28494;-90
2022/05/10 12:34:29;;;;;;;;;;;;;;;;;;5074446;28;28945;-92
2022/05/10 12:36:54;;;;;;;;;;;;;;;;;;5074319;28;28505;-92
2022/05/10 12:39:19;;;;;;;;;;;;;;;;;;5059292;28;28913;-92
2022/05/10 12:41:44;;;;;;;;;;;;;;;;;;5074449;28;28456;-90
2022/05/10 12:44:09;;;;;;;;;;;;;;;;;;5056091;28;30711;-92
2022/05/10 12:46:36;;;;;;;;;;;;;;;;;;5075327;28;28544;-90
2022/05/10 12:49:01;;;;;;;;;;;;;;;;;;5083647;28;28608;-91
2022/05/10 12:51:26;;;;;;;;;;;;;;;;;;5074569;28;28308;-90
2022/05/10 12:53:52;;;;;;;;;;;;;;;;;;5074438;28;28464;-92
2022/05/10 12:56:17;;;;;;;;;;;;;;;;;;5074412;28;28383;-92
2022/05/10 12:58:42;;;;;;;;;;;;;;;;;;5055897;28;28531;-92
2022/05/10 13:01:07;;;;;;;;;;;;;;;;;;5058053;28;28420;-91
2022/05/10 13:03:34;;;;;;;;;;;;;;;;;;5057455;28;31192;-93
2022/05/10 13:05:59;;;;;;;;;;;;;;;;;;5057600;28;28510;-91
2022/05/10 13:08:24;;;;;;;;;;;;;;;;;;5067372;28;28407;-93
2022/05/10 13:10:50;;;;;;;;;;;;;;;;;;5059803;28;28678;-92
2022/05/10 13:13:15;;;;;;;;;;;;;;;;;;5062382;28;29347;-91
2022/05/10 13:15:40;;;;;;;;;;;;;;;;;;5057460;28;28477;-92
2022/05/10 13:18:06;;;;;;;;;;;;;;;;;;5057711;28;28423;-91
2022/05/10 13:20:32;;;;;;;;;;;;;;;;;;5079352;27;28474;-92
2022/05/10 13:22:58;;;;;;;;;;;;;;;;;;5080703;28;29441;-92
2022/05/10 13:25:23;;;;;;;;;;;;;;;;;;5057605;28;28545;-92
2022/05/10 13:27:51;;;;;;;;;;;;;;;;;;5077482;28;28498;-92
2022/05/10 13:30:17;;;;;;;;;;;;;;;;;;5080972;28;28594;-92
2022/05/10 13:32:43;;;;;;;;;;;;;;;;;;5073452;28;29923;-91
2022/05/10 13:35:08;;;;;;;;;;;;;;;;;;5069598;28;28686;-92
2022/05/10 13:37:33;;;;;;;;;;;;;;;;;;5081559;28;28383;-91
2022/05/10 13:39:59;;;;;;;;;;;;;;;;;;5096136;27;28434;-92
2022/05/10 13:42:24;;;;;;;;;;;;;;;;;;5081082;28;28527;-91
2022/05/10 13:44:49;;;;;;;;;;;;;;;;;;5080763;28;28412;-92
2022/05/10 13:47:14;;;;;;;;;;;;;;;;;;5051664;28;28471;-91
2022/05/10 13:49:42;;;;;;;;;;;;;;;;;;5077580;28;28550;-92
2022/05/10 13:52:07;;;;;;;;;;;;;;;;;;5077914;28;28734;-92
2022/05/10 13:54:34;;;;;;;;;;;;;;;;;;5089970;28;28462;-92
2022/05/10 13:56:59;;;;;;;;;;;;;;;;;;5049004;28;28605;-91
2022/05/10 13:59:24;;;;;;;;;;;;;;;;;;5078161;28;28477;-94
2022/05/10 14:01:49;;;;;;;;;;;;;;;;;;5060744;28;29642;-91
2022/05/10 14:04:15;;;;;;;;;;;;;;;;;;5080198;28;28449;-94
2022/05/10 14:06:40;;;;;;;;;;;;;;;;;;5061470;28;28510;-94
2022/05/10 14:09:07;;;;;;;;;;;;;;;;;;5064139;28;28593;-94
2022/05/10 14:11:32;;;;;;;;;;;;;;;;;;5061968;28;30202;-95
2022/05/10 14:13:57;;;;;;;;;;;;;;;;;;5059664;28;28580;-92
2022/05/10 14:16:23;;;;;;;;;;;;;;;;;;5077274;28;28379;-91
2022/05/10 14:18:48;;;;;;;;;;;;;;;;;;5076195;28;28444;-90
2022/05/10 14:21:13;;;;;;;;;;;;;;;;;;5077198;27;29306;-90
2022/05/10 14:23:38;;;;;;;;;;;;;;;;;;5077378;28;28390;-90
2022/05/10 14:26:03;;;;;;;;;;;;;;;;;;5080835;28;28585;-92
2022/05/10 14:28:36;;;;;;;;;;;;;;;;;;5087446;28;28768;-91
2022/05/10 14:31:01;;;;;;;;;;;;;;;;;;5068184;28;30125;-93
2022/05/10 14:33:26;;;;;;;;;;;;;;;;;;5081114;28;28693;-91
2022/05/10 14:35:51;;;;;;;;;;;;;;;;;;5072917;28;28388;-92
2022/05/10 14:38:19;;;;;;;;;;;;;;;;;;5060594;28;28435;-92
2022/05/10 14:40:44;;;;;;;;;;;;;;;;;;5077199;28;28360;-92
2022/05/10 14:43:10;;;;;;;;;;;;;;;;;;5039616;28;28416;-93
2022/05/10 14:45:36;;;;;;;;;;;;;;;;;;5058426;28;28311;-89
2022/05/10 14:48:01;;;;;;;;;;;;;;;;;;5056490;28;28333;-89
2022/05/10 14:50:26;;;;;;;;;;;;;;;;;;5056516;28;28604;-86
2022/05/10 14:52:51;;;;;;;;;;;;;;;;;;5056454;28;28415;-86
2022/05/10 14:55:18;;;;;;;;;;;;;;;;;;5057824;28;28317;-85
2022/05/10 14:57:43;;;;;;;;;;;;;;;;;;5058062;28;28480;-92
2022/05/10 15:02:52;;;;;;;;;;;;;;;;;;5061712;28;28532;-89
2022/05/10 15:05:19;;;;;;;;;;;;;;;;;;5068072;28;28276;-86
2022/05/10 15:07:45;;;;;;;;;;;;;;;;;;5053181;28;28594;-85
2022/05/10 15:10:10;;;;;;;;;;;;;;;;;;5069554;28;28384;-90
2022/05/10 15:15:21;;;;;;;;;;;;;;;;;;5076872;28;28296;-90
2022/05/10 15:20:30;;;;;;;;;;;;;;;;;;5077159;28;28461;-87
2022/05/10 15:22:55;;;;;;;;;;;;;;;;;;5075693;28;28387;-87
2022/05/10 15:25:20;;;;;;;;;;;;;;;;;;5076676;28;28371;-88
2022/05/10 15:27:45;;;;;;;;;;;;;;;;;;5075966;28;28320;-86
2022/05/10 15:30:10;;;;;;;;;;;;;;;;;;5076821;28;29534;-85
2022/05/10 15:32:35;;;;;;;;;;;;;;;;;;5076620;28;28368;-88
2022/05/10 15:35:02;;;;;;;;;;;;;;;;;;5076681;28;28320;-89
2022/05/10 15:37:27;;;;;;;;;;;;;;;;;;5076757;28;28347;-87
2022/05/10 15:39:52;;;;;;;;;;;;;;;;;;5075341;28;28679;-86
2022/05/10 15:42:18;;;;;;;;;;;;;;;;;;5076377;28;28545;-86
2022/05/10 15:44:43;;;;;;;;;;;;;;;;;;5055432;28;28286;-89
2022/05/10 15:47:09;;;;;;;;;;;;;;;;;;5072262;28;28321;-85
2022/05/10 15:49:34;;;;;;;;;;;;;;;;;;5058347;28;29931;-86
2022/05/10 15:51:59;;;;;;;;;;;;;;;;;;5076491;28;28542;-86
2022/05/10 15:54:26;;;;;;;;;;;;;;;;;;5076703;28;28245;-86
2022/05/10 15:56:51;;;;;;;;;;;;;;;;;;5077144;28;28514;-87
2022/05/10 15:59:16;;;;;;;;;;;;;;;;;;5057823;28;28621;-86
2022/05/10 16:01:41;;;;;;;;;;;;;;;;;;5076072;28;28511;-87
2022/05/10 16:04:07;;;;;;;;;;;;;;;;;;5076165;28;28381;-87
2022/05/10 16:06:32;;;;;;;;;;;;;;;;;;5076569;28;28470;-86
2022/05/10 16:08:58;;;;;;;;;;;;;;;;;;5058141;28;29775;-85
2022/05/10 16:11:23;;;;;;;;;;;;;;;;;;5076165;28;28352;-86
2022/05/10 16:13:48;;;;;;;;;;;;;;;;;;5075590;28;28324;-87
2022/05/10 16:16:13;;;;;;;;;;;;;;;;;;5076097;28;28386;-84
2022/05/10 16:18:38;;;;;;;;;;;;;;;;;;5074511;28;28683;-85
2022/05/10 16:21:03;;;;;;;;;;;;;;;;;;5075692;28;28388;-84
2022/05/10 16:23:28;;;;;;;;;;;;;;;;;;5075916;28;28500;-83
2022/05/10 16:25:53;;;;;;;;;;;;;;;;;;5075831;28;27799;-85
2022/05/10 16:31:02;;;;;;;;;;;;;;;;;;5076221;28;28461;-87
2022/05/10 16:33:28;;;;;;;;;;;;;;;;;;5076020;28;28363;-85
2022/05/10 16:35:53;;;;;;;;;;;;;;;;;;5078382;28;28497;-86
2022/05/10 16:38:19;;;;;;;;;;;;;;;;;;5079694;28;28498;-85
2022/05/10 16:40:44;;;;;;;;;;;;;;;;;;5079703;28;28366;-89
2022/05/10 16:43:09;;;;;;;;;;;;;;;;;;5078793;28;28395;-90
2022/05/10 16:45:34;;;;;;;;;;;;;;;;;;5079848;28;28345;-94
2022/05/10 16:47:59;;;;;;;;;;;;;;;;;;5078333;28;30222;-91
2022/05/10 16:50:24;;;;;;;;;;;;;;;;;;5079623;28;28395;-88
2022/05/10 16:52:49;;;;;;;;;;;;;;;;;;5079509;28;28300;-90
2022/05/10 16:55:15;;;;;;;;;;;;;;;;;;5078380;28;28340;-88
2022/05/10 16:57:41;;;;;;;;;;;;;;;;;;5078254;28;28594;-91
2022/05/10 17:00:12;;;;;;;;;;;;;;;;;;5078125;28;28472;-84